createdAt,value
2022-11-17T00:00:48.316Z,1002.25
2022-11-17T00:01:48.299Z,1002.24
2022-11-17T00:02:48.363Z,1002.22
2022-11-17T00:03:48.279Z,1002.35
2022-11-17T00:04:48.293Z,1002.21
2022-11-17T00:05:48.259Z,1002.22
2022-11-17T00:06:48.245Z,1002.24
2022-11-17T00:07:48.255Z,1002.18
2022-11-17T00:08:48.232Z,1002.20
2022-11-17T00:09:48.218Z,1002.21
2022-11-17T00:10:48.227Z,1002.16
2022-11-17T00:11:48.187Z,1002.22
2022-11-17T00:12:48.179Z,1002.27
2022-11-17T00:13:48.171Z,1002.27
2022-11-17T00:14:48.164Z,1002.28
2022-11-17T00:15:48.158Z,1002.30
2022-11-17T00:16:48.157Z,1002.20
2022-11-17T00:17:48.128Z,1002.28
2022-11-17T00:18:48.118Z,1002.22
2022-11-17T00:19:48.114Z,1002.24
2022-11-17T00:20:48.125Z,1002.20
2022-11-17T00:21:48.084Z,1002.19
2022-11-17T00:22:48.074Z,1002.06
2022-11-17T00:23:48.449Z,1002.04
2022-11-17T00:24:48.053Z,1002.05
2022-11-17T00:25:48.062Z,1002.05
2022-11-17T00:26:48.030Z,1002.05
2022-11-17T00:27:48.020Z,1002.07
2022-11-17T00:28:48.012Z,1002.20
2022-11-17T00:29:47.999Z,1002.06
2022-11-17T00:30:48.006Z,1002.18
2022-11-17T00:31:48.029Z,1002.08
2022-11-17T00:32:48.082Z,1002.10
2022-11-17T00:33:47.955Z,1002.01
2022-11-17T00:34:47.943Z,1002.05
2022-11-17T00:35:47.933Z,1002.01
2022-11-17T00:36:47.938Z,1001.98
2022-11-17T00:37:47.926Z,1002.03
2022-11-17T00:38:47.901Z,1002.04
2022-11-17T00:39:47.973Z,1002.08
2022-11-17T00:40:47.875Z,1002.08
2022-11-17T00:41:47.890Z,1002.11
2022-11-17T00:42:47.857Z,1002.07
2022-11-17T00:43:47.845Z,1002.05
2022-11-17T00:44:47.832Z,1002.01
2022-11-17T00:45:47.826Z,1002.06
2022-11-17T00:46:47.838Z,1002.01
2022-11-17T00:47:47.799Z,1001.94
2022-11-17T00:48:47.794Z,1002.04
2022-11-17T00:49:47.780Z,1001.89
2022-11-17T00:50:47.768Z,1001.82
2022-11-17T00:51:47.813Z,1001.86
2022-11-17T00:52:47.743Z,1001.92
2022-11-17T00:53:47.739Z,1001.84
2022-11-17T00:54:47.750Z,1001.83
2022-11-17T00:55:47.891Z,1001.83
2022-11-17T00:56:47.728Z,1001.81
2022-11-17T00:57:47.695Z,1001.85
2022-11-17T00:58:47.689Z,1001.80
2022-11-17T00:59:47.674Z,1001.82
2022-11-17T01:00:47.658Z,1001.84
2022-11-17T01:01:47.698Z,1001.81
2022-11-17T01:02:47.635Z,1001.85
2022-11-17T01:03:47.628Z,1001.88
2022-11-17T01:04:47.636Z,1001.87
2022-11-17T01:05:47.601Z,1001.89
2022-11-17T01:06:47.615Z,1001.94
2022-11-17T01:07:47.604Z,1001.89
2022-11-17T01:08:47.668Z,1001.95
2022-11-17T01:09:47.560Z,1001.91
2022-11-17T01:10:47.578Z,1001.95
2022-11-17T01:11:47.652Z,1001.84
2022-11-17T01:12:47.530Z,1001.99
2022-11-17T01:13:47.521Z,1001.86
2022-11-17T01:14:47.508Z,1001.87
2022-11-17T01:15:47.509Z,1001.87
2022-11-17T01:16:47.481Z,1001.81
2022-11-17T01:17:47.494Z,1001.87
2022-11-17T01:18:47.525Z,1001.85
2022-11-17T01:19:47.482Z,1001.87
2022-11-17T01:20:47.440Z,1001.77
2022-11-17T01:21:47.429Z,1001.81
2022-11-17T01:22:47.447Z,1001.91
2022-11-17T01:23:47.409Z,1001.86
2022-11-17T01:24:47.398Z,1001.79
2022-11-17T01:25:47.389Z,1001.85
2022-11-17T01:26:47.381Z,1001.79
2022-11-17T01:27:47.505Z,1001.79
2022-11-17T01:28:47.360Z,1001.89
2022-11-17T01:29:47.347Z,1001.87
2022-11-17T01:30:47.334Z,1001.80
2022-11-17T01:31:47.323Z,1001.81
2022-11-17T01:32:47.306Z,1001.91
2022-11-17T01:33:47.329Z,1001.83
2022-11-17T01:34:47.287Z,1001.83
2022-11-17T01:35:47.283Z,1001.80
2022-11-17T01:36:47.303Z,1001.88
2022-11-17T01:37:47.254Z,1001.79
2022-11-17T01:38:47.271Z,1001.77
2022-11-17T01:39:47.244Z,1001.81
2022-11-17T01:40:47.227Z,1001.78
2022-11-17T01:41:47.242Z,1001.74
2022-11-17T01:42:47.200Z,1001.81
2022-11-17T01:43:47.226Z,1001.66
2022-11-17T01:44:47.178Z,1001.67
2022-11-17T01:45:47.168Z,1001.69
2022-11-17T01:46:47.177Z,1001.65
2022-11-17T01:47:47.148Z,1001.57
2022-11-17T01:48:47.160Z,1001.63
2022-11-17T01:49:47.128Z,1001.80
2022-11-17T01:50:47.117Z,1001.65
2022-11-17T01:51:47.100Z,1001.63
2022-11-17T01:52:47.102Z,1001.50
2022-11-17T01:53:47.118Z,1001.50
2022-11-17T01:54:47.071Z,1001.54
2022-11-17T01:55:47.061Z,1001.62
2022-11-17T01:56:47.070Z,1001.58
2022-11-17T01:57:47.040Z,1001.55
2022-11-17T01:58:47.030Z,1001.60
2022-11-17T01:59:47.182Z,1001.62
2022-11-17T02:00:47.005Z,1001.69
2022-11-17T02:01:47.046Z,1001.58
2022-11-17T02:02:46.995Z,1001.67
2022-11-17T02:03:46.974Z,1001.66
2022-11-17T02:04:46.960Z,1001.63
2022-11-17T02:05:46.978Z,1001.51
2022-11-17T02:06:46.936Z,1001.57
2022-11-17T02:07:46.950Z,1001.55
2022-11-17T02:08:46.914Z,1001.55
2022-11-17T02:09:46.907Z,1001.54
2022-11-17T02:10:51.425Z,1001.57
2022-11-17T02:11:46.887Z,1001.57
2022-11-17T02:12:46.892Z,1001.53
2022-11-17T02:13:46.866Z,1001.53
2022-11-17T02:14:46.849Z,1001.59
2022-11-17T02:15:47.029Z,1001.62
2022-11-17T02:16:46.833Z,1001.69
2022-11-17T02:17:46.819Z,1001.60
2022-11-17T02:18:46.820Z,1001.60
2022-11-17T02:19:46.797Z,1001.55
2022-11-17T02:20:46.810Z,1001.61
2022-11-17T02:21:46.772Z,1001.57
2022-11-17T02:22:46.764Z,1001.60
2022-11-17T02:23:46.755Z,1001.61
2022-11-17T02:24:46.741Z,1001.57
2022-11-17T02:25:46.749Z,1001.49
2022-11-17T02:26:46.722Z,1001.58
2022-11-17T02:27:46.727Z,1001.55
2022-11-17T02:28:46.699Z,1001.64
2022-11-17T02:29:46.691Z,1001.56
2022-11-17T02:30:46.703Z,1001.65
2022-11-17T02:31:46.955Z,1001.58
2022-11-17T02:32:46.680Z,1001.65
2022-11-17T02:33:46.658Z,1001.74
2022-11-17T02:34:46.636Z,1001.65
2022-11-17T02:35:46.628Z,1001.63
2022-11-17T02:36:46.617Z,1001.55
2022-11-17T02:37:46.601Z,1001.54
2022-11-17T02:38:46.614Z,1001.46
2022-11-17T02:39:46.602Z,1001.48
2022-11-17T02:40:46.575Z,1001.52
2022-11-17T02:41:46.562Z,1001.47
2022-11-17T02:42:46.543Z,1001.53
2022-11-17T02:43:46.552Z,1001.46
2022-11-17T02:44:46.522Z,1001.51
2022-11-17T02:45:46.544Z,1001.48
2022-11-17T02:46:46.529Z,1001.40
2022-11-17T02:47:46.638Z,1001.47
2022-11-17T02:48:46.481Z,1001.47
2022-11-17T02:49:46.467Z,1001.34
2022-11-17T02:50:46.458Z,1001.36
2022-11-17T02:51:46.472Z,1001.34
2022-11-17T02:52:46.433Z,1001.33
2022-11-17T02:53:46.424Z,1001.30
2022-11-17T02:54:46.411Z,1001.25
2022-11-17T02:55:46.400Z,1001.26
2022-11-17T02:56:46.418Z,1001.29
2022-11-17T02:57:46.378Z,1001.30
2022-11-17T02:58:46.369Z,1001.20
2022-11-17T02:59:46.372Z,1001.25
2022-11-17T03:00:46.354Z,1001.15
2022-11-17T03:01:46.402Z,1001.18
2022-11-17T03:02:46.324Z,1001.25
2022-11-17T03:03:46.424Z,1001.22
2022-11-17T03:04:46.298Z,1001.19
2022-11-17T03:05:46.287Z,1001.26
2022-11-17T03:06:46.299Z,1001.23
2022-11-17T03:07:46.270Z,1001.18
2022-11-17T03:08:46.257Z,1001.22
2022-11-17T03:09:46.298Z,1001.19
2022-11-17T03:10:46.236Z,1001.14
2022-11-17T03:11:46.240Z,1001.12
2022-11-17T03:12:46.215Z,1001.15
2022-11-17T03:13:46.212Z,1001.09
2022-11-17T03:14:46.187Z,1001.14
2022-11-17T03:15:46.178Z,1001.12
2022-11-17T03:16:46.184Z,1001.18
2022-11-17T03:17:46.160Z,1001.20
2022-11-17T03:18:46.163Z,1001.21
2022-11-17T03:19:46.245Z,1001.25
2022-11-17T03:20:46.140Z,1001.20
2022-11-17T03:21:46.118Z,1001.18
2022-11-17T03:22:46.120Z,1001.14
2022-11-17T03:23:46.093Z,1001.14
2022-11-17T03:24:46.095Z,1001.19
2022-11-17T03:25:46.068Z,1001.08
2022-11-17T03:26:46.057Z,1001.14
2022-11-17T03:27:46.046Z,1001.17
2022-11-17T03:28:46.034Z,1001.09
2022-11-17T03:29:46.053Z,1001.08
2022-11-17T03:30:46.014Z,1000.98
2022-11-17T03:31:46.003Z,1001.01
2022-11-17T03:32:46.029Z,1001.05
2022-11-17T03:33:45.980Z,1000.95
2022-11-17T03:34:45.971Z,1000.92
2022-11-17T03:35:50.506Z,1000.95
2022-11-17T03:36:45.944Z,1000.96
2022-11-17T03:37:45.938Z,1000.92
2022-11-17T03:38:45.944Z,1001.00
2022-11-17T03:39:45.936Z,1000.93
2022-11-17T03:40:45.901Z,1000.91
2022-11-17T03:41:45.896Z,1000.97
2022-11-17T03:42:45.882Z,1001.04
2022-11-17T03:43:45.882Z,1000.88
2022-11-17T03:44:45.882Z,1000.92
2022-11-17T03:45:45.847Z,1000.98
2022-11-17T03:46:45.835Z,1000.89
2022-11-17T03:47:45.831Z,1000.90
2022-11-17T03:48:45.813Z,1000.89
2022-11-17T03:49:45.839Z,1000.97
2022-11-17T03:50:45.790Z,1000.90
2022-11-17T03:51:45.898Z,1000.89
2022-11-17T03:52:45.768Z,1000.93
2022-11-17T03:53:45.814Z,1000.91
2022-11-17T03:54:45.749Z,1001.00
2022-11-17T03:55:45.751Z,1000.97
2022-11-17T03:56:45.725Z,1000.94
2022-11-17T03:57:45.713Z,1000.93
2022-11-17T03:58:45.707Z,1000.91
2022-11-17T03:59:45.697Z,1000.94
2022-11-17T04:00:45.698Z,1000.87
2022-11-17T04:01:45.833Z,1000.91
2022-11-17T04:02:45.660Z,1000.85
2022-11-17T04:03:45.648Z,1000.89
2022-11-17T04:04:45.657Z,1000.87
2022-11-17T04:05:45.629Z,1000.86
2022-11-17T04:06:45.615Z,1000.84
2022-11-17T04:07:45.622Z,1000.86
2022-11-17T04:08:45.595Z,1000.82
2022-11-17T04:09:45.600Z,1000.92
2022-11-17T04:10:45.589Z,1000.97
2022-11-17T04:11:45.575Z,1001.05
2022-11-17T04:12:45.575Z,1000.92
2022-11-17T04:13:45.664Z,1000.81
2022-11-17T04:14:45.568Z,1000.94
2022-11-17T04:15:45.552Z,1000.88
2022-11-17T04:16:45.499Z,1000.93
2022-11-17T04:17:45.491Z,1000.93
2022-11-17T04:18:45.481Z,1000.88
2022-11-17T04:19:45.466Z,1000.84
2022-11-17T04:20:45.483Z,1000.76
2022-11-17T04:21:45.442Z,1000.77
2022-11-17T04:22:45.435Z,1000.80
2022-11-17T04:23:45.534Z,1000.83
2022-11-17T04:24:45.418Z,1000.78
2022-11-17T04:25:45.425Z,1000.76
2022-11-17T04:26:45.384Z,1000.72
2022-11-17T04:27:45.380Z,1000.70
2022-11-17T04:28:45.452Z,1000.76
2022-11-17T04:29:45.356Z,1000.80
2022-11-17T04:30:45.364Z,1000.82
2022-11-17T04:31:45.335Z,1000.79
2022-11-17T04:32:45.321Z,1000.76
2022-11-17T04:33:45.395Z,1000.82
2022-11-17T04:34:45.300Z,1000.80
2022-11-17T04:35:45.312Z,1000.78
2022-11-17T04:36:45.285Z,1000.76
2022-11-17T04:37:45.266Z,1000.67
2022-11-17T04:38:45.321Z,1000.71
2022-11-17T04:39:45.363Z,1000.71
2022-11-17T04:40:45.267Z,1000.74
2022-11-17T04:41:45.223Z,1000.67
2022-11-17T04:42:45.209Z,1000.66
2022-11-17T04:43:45.279Z,1000.69
2022-11-17T04:44:45.196Z,1000.68
2022-11-17T04:45:45.177Z,1000.69
2022-11-17T04:46:45.186Z,1000.67
2022-11-17T04:47:45.157Z,1000.67
2022-11-17T04:48:45.164Z,1000.60
2022-11-17T04:49:45.131Z,1000.65
2022-11-17T04:50:45.124Z,1000.67
2022-11-17T04:51:45.143Z,1000.64
2022-11-17T04:52:45.102Z,1000.67
2022-11-17T04:53:45.089Z,1000.63
2022-11-17T04:54:45.077Z,1000.59
2022-11-17T04:55:45.133Z,1000.60
2022-11-17T04:56:45.052Z,1000.57
2022-11-17T04:57:45.071Z,1000.59
2022-11-17T04:58:45.032Z,1000.62
2022-11-17T04:59:45.020Z,1000.57
2022-11-17T05:00:45.009Z,1000.62
2022-11-17T05:01:44.997Z,1000.57
2022-11-17T05:02:45.046Z,1000.64
2022-11-17T05:03:44.977Z,1000.62
2022-11-17T05:04:44.961Z,1000.58
2022-11-17T05:05:44.956Z,1000.67
2022-11-17T05:06:44.946Z,1000.68
2022-11-17T05:07:44.953Z,1000.65
2022-11-17T05:08:44.921Z,1000.59
2022-11-17T05:09:44.907Z,1000.65
2022-11-17T05:10:44.939Z,1000.65
2022-11-17T05:11:45.003Z,1000.61
2022-11-17T05:12:44.899Z,1000.64
2022-11-17T05:13:44.867Z,1000.61
2022-11-17T05:14:44.854Z,1000.54
2022-11-17T05:15:44.844Z,1000.52
2022-11-17T05:16:44.838Z,1000.61
2022-11-17T05:17:44.843Z,1000.54
2022-11-17T05:18:44.811Z,1000.53
2022-11-17T05:19:44.802Z,1000.56
2022-11-17T05:20:44.792Z,1000.60
2022-11-17T05:21:44.780Z,1000.53
2022-11-17T05:22:44.795Z,1000.60
2022-11-17T05:23:44.757Z,1000.61
2022-11-17T05:24:44.747Z,1000.59
2022-11-17T05:25:44.737Z,1000.58
2022-11-17T05:26:44.752Z,1000.58
2022-11-17T05:27:44.831Z,1000.47
2022-11-17T05:28:44.702Z,1000.52
2022-11-17T05:29:44.695Z,1000.49
2022-11-17T05:30:44.685Z,1000.51
2022-11-17T05:31:44.668Z,1000.46
2022-11-17T05:32:44.682Z,1000.44
2022-11-17T05:33:44.948Z,1000.43
2022-11-17T05:34:44.649Z,1000.50
2022-11-17T05:35:44.625Z,1000.37
2022-11-17T05:36:44.638Z,1000.38
2022-11-17T05:37:44.609Z,1000.39
2022-11-17T05:38:44.597Z,1000.36
2022-11-17T05:39:44.625Z,1000.36
2022-11-17T05:40:44.575Z,1000.36
2022-11-17T05:41:44.563Z,1000.30
2022-11-17T05:42:44.572Z,1000.40
2022-11-17T05:43:44.659Z,1000.36
2022-11-17T05:44:44.558Z,1000.24
2022-11-17T05:45:44.522Z,1000.30
2022-11-17T05:46:44.534Z,1000.24
2022-11-17T05:47:44.502Z,1000.29
2022-11-17T05:48:44.496Z,1000.23
2022-11-17T05:49:44.495Z,1000.24
2022-11-17T05:50:44.463Z,1000.16
2022-11-17T05:51:47.450Z,1000.18
2022-11-17T05:52:45.458Z,1000.18
2022-11-17T05:53:44.433Z,1000.17
2022-11-17T05:54:44.424Z,1000.22
2022-11-17T05:55:44.412Z,1000.22
2022-11-17T05:56:44.401Z,1000.17
2022-11-17T05:57:44.408Z,1000.21
2022-11-17T05:58:44.384Z,1000.16
2022-11-17T05:59:44.507Z,1000.18
2022-11-17T06:00:44.357Z,1000.27
2022-11-17T06:01:44.346Z,1000.25
2022-11-17T06:02:44.335Z,1000.30
2022-11-17T06:03:44.325Z,1000.23
2022-11-17T06:04:44.329Z,1000.24
2022-11-17T06:05:44.300Z,1000.21
2022-11-17T06:06:44.317Z,1000.31
2022-11-17T06:07:44.282Z,1000.27
2022-11-17T06:08:44.269Z,1000.23
2022-11-17T06:09:44.256Z,1000.26
2022-11-17T06:10:44.246Z,1000.33
2022-11-17T06:11:44.255Z,1000.22
2022-11-17T06:12:44.223Z,1000.25
2022-11-17T06:13:44.216Z,1000.24
2022-11-17T06:14:44.205Z,1000.22
2022-11-17T06:15:44.305Z,1000.27
2022-11-17T06:16:44.211Z,1000.25
2022-11-17T06:17:44.173Z,1000.29
2022-11-17T06:18:44.165Z,1000.24
2022-11-17T06:19:44.173Z,1000.30
2022-11-17T06:20:44.139Z,1000.28
2022-11-17T06:22:10.753Z,1000.24
2022-11-17T06:22:48.340Z,1000.27
2022-11-17T06:23:44.116Z,1000.33
2022-11-17T06:24:44.133Z,1000.27
2022-11-17T06:25:44.080Z,1000.36
2022-11-17T06:26:44.082Z,1000.39
2022-11-17T06:27:44.069Z,1000.35
2022-11-17T06:28:44.060Z,1000.36
2022-11-17T06:29:45.128Z,1000.30
2022-11-17T06:30:44.046Z,1000.26
2022-11-17T06:31:44.038Z,1000.25
2022-11-17T06:32:44.037Z,1000.26
2022-11-17T06:33:43.994Z,1000.26
2022-11-17T06:34:43.988Z,1000.26
2022-11-17T06:35:43.984Z,1000.30
2022-11-17T06:36:43.970Z,1000.32
2022-11-17T06:37:43.980Z,1000.26
2022-11-17T06:38:43.948Z,1000.31
2022-11-17T06:39:43.929Z,1000.19
2022-11-17T06:40:43.925Z,1000.23
2022-11-17T06:41:43.911Z,1000.24
2022-11-17T06:42:43.938Z,1000.17
2022-11-17T06:43:43.895Z,1000.18
2022-11-17T06:44:43.881Z,1000.18
2022-11-17T06:45:43.868Z,1000.19
2022-11-17T06:46:48.795Z,1000.17
2022-11-17T06:47:44.963Z,1000.20
2022-11-17T06:48:43.843Z,1000.12
2022-11-17T06:49:43.825Z,1000.11
2022-11-17T06:50:43.813Z,1000.10
2022-11-17T06:51:45.367Z,1000.11
2022-11-17T06:52:43.790Z,1000.08
2022-11-17T06:53:43.784Z,1000.05
2022-11-17T06:54:43.770Z,1000.01
2022-11-17T06:55:43.764Z,1000.06
2022-11-17T06:56:43.752Z,1000.04
2022-11-17T06:57:46.524Z,1000.03
2022-11-17T06:58:44.722Z,1000.00
2022-11-17T06:59:43.726Z,1000.06
2022-11-17T07:00:43.743Z,1000.05
2022-11-17T07:01:43.696Z,1000.07
2022-11-17T07:02:43.714Z,1000.08
2022-11-17T07:03:43.706Z,1000.07
2022-11-17T07:04:43.678Z,1000.02
2022-11-17T07:05:43.671Z,999.98
2022-11-17T07:06:43.642Z,999.98
2022-11-17T07:07:43.658Z,999.94
2022-11-17T07:08:43.619Z,999.88
2022-11-17T07:09:43.617Z,999.89
2022-11-17T07:10:48.985Z,999.88
2022-11-17T07:11:44.587Z,999.81
2022-11-17T07:12:43.593Z,999.86
2022-11-17T07:13:43.567Z,999.81
2022-11-17T07:14:43.558Z,999.93
2022-11-17T07:15:43.558Z,999.90
2022-11-17T07:16:43.534Z,999.91
2022-11-17T07:17:43.556Z,999.87
2022-11-17T07:18:43.521Z,999.90
2022-11-17T07:19:43.620Z,999.84
2022-11-17T07:20:43.489Z,999.85
2022-11-17T07:21:43.485Z,999.88
2022-11-17T07:22:43.496Z,999.83
2022-11-17T07:23:43.488Z,999.77
2022-11-17T07:24:43.452Z,999.90
2022-11-17T07:25:43.467Z,999.81
2022-11-17T07:26:43.425Z,999.82
2022-11-17T07:27:43.421Z,999.85
2022-11-17T07:28:43.495Z,999.73
2022-11-17T07:29:43.420Z,999.72
2022-11-17T07:30:43.409Z,999.73
2022-11-17T07:31:43.390Z,999.72
2022-11-17T07:32:43.366Z,999.74
2022-11-17T07:33:43.358Z,999.79
2022-11-17T07:34:43.344Z,999.83
2022-11-17T07:35:43.518Z,999.76
2022-11-17T07:36:43.344Z,999.82
2022-11-17T07:37:43.315Z,999.92
2022-11-17T07:38:43.299Z,999.86
2022-11-17T07:39:43.314Z,999.89
2022-11-17T07:40:43.280Z,999.87
2022-11-17T07:41:43.307Z,999.87
2022-11-17T07:42:43.278Z,999.83
2022-11-17T07:43:43.251Z,999.88
2022-11-17T07:44:43.236Z,999.87
2022-11-17T07:45:43.321Z,999.89
2022-11-17T07:46:43.210Z,999.85
2022-11-17T07:47:43.201Z,999.87
2022-11-17T07:48:43.207Z,999.88
2022-11-17T07:49:43.185Z,999.89
2022-11-17T07:50:43.182Z,999.93
2022-11-17T07:51:43.286Z,999.93
2022-11-17T07:52:43.173Z,999.88
2022-11-17T07:53:43.163Z,999.90
2022-11-17T07:54:43.137Z,999.87
2022-11-17T07:55:43.118Z,999.94
2022-11-17T07:56:43.106Z,999.98
2022-11-17T07:57:43.100Z,999.97
2022-11-17T07:58:43.109Z,999.97
2022-11-17T07:59:43.092Z,999.96
2022-11-17T08:00:43.132Z,999.92
2022-11-17T08:01:43.057Z,1000.01
2022-11-17T08:02:43.037Z,999.97
2022-11-17T08:03:43.154Z,999.94
2022-11-17T08:04:43.037Z,999.88
2022-11-17T08:05:43.895Z,999.92
2022-11-17T08:06:42.993Z,999.88
2022-11-17T08:07:43.112Z,999.95
2022-11-17T08:08:42.996Z,999.97
2022-11-17T08:09:42.974Z,999.95
2022-11-17T08:10:42.962Z,999.95
2022-11-17T08:11:42.948Z,999.97
2022-11-17T08:12:42.936Z,1000.01
2022-11-17T08:13:42.953Z,999.93
2022-11-17T08:14:42.913Z,999.93
2022-11-17T08:15:42.905Z,999.96
2022-11-17T08:16:42.891Z,999.91
2022-11-17T08:17:42.880Z,999.91
2022-11-17T08:18:45.967Z,999.88
2022-11-17T08:19:43.883Z,999.96
2022-11-17T08:20:42.848Z,999.96
2022-11-17T08:21:42.838Z,999.85
2022-11-17T08:22:42.821Z,999.87
2022-11-17T08:23:42.950Z,999.89
2022-11-17T08:24:42.830Z,999.84
2022-11-17T08:25:42.794Z,999.83
2022-11-17T08:26:42.778Z,999.80
2022-11-17T08:27:42.773Z,999.73
2022-11-17T08:28:42.781Z,999.76
2022-11-17T08:29:42.750Z,999.78
2022-11-17T08:30:42.733Z,999.73
2022-11-17T08:31:42.733Z,999.74
2022-11-17T08:32:42.719Z,999.83
2022-11-17T08:33:42.751Z,999.76
2022-11-17T08:34:42.696Z,999.79
2022-11-17T08:35:42.687Z,999.75
2022-11-17T08:36:42.673Z,999.81
2022-11-17T08:37:42.663Z,999.77
2022-11-17T08:38:42.649Z,999.76
2022-11-17T08:39:42.678Z,999.84
2022-11-17T08:40:42.636Z,999.81
2022-11-17T08:41:42.632Z,999.77
2022-11-17T08:42:42.612Z,999.78
2022-11-17T08:43:42.598Z,999.73
2022-11-17T08:44:42.604Z,999.80
2022-11-17T08:45:42.572Z,999.79
2022-11-17T08:46:42.557Z,999.75
2022-11-17T08:47:42.556Z,999.86
2022-11-17T08:48:42.542Z,999.78
2022-11-17T08:49:42.551Z,999.79
2022-11-17T08:50:42.518Z,999.71
2022-11-17T08:51:42.531Z,999.75
2022-11-17T08:52:42.495Z,999.69
2022-11-17T08:53:42.483Z,999.67
2022-11-17T08:54:42.495Z,999.72
2022-11-17T08:55:42.661Z,999.67
2022-11-17T08:56:42.545Z,999.65
2022-11-17T08:57:42.438Z,999.64
2022-11-17T08:58:42.431Z,999.71
2022-11-17T08:59:42.419Z,999.67
2022-11-17T09:00:42.487Z,999.71
2022-11-17T09:01:42.474Z,999.71
2022-11-17T09:02:42.404Z,999.68
2022-11-17T09:03:42.376Z,999.66
2022-11-17T09:04:42.360Z,999.71
2022-11-17T09:05:42.367Z,999.71
2022-11-17T09:06:42.346Z,999.66
2022-11-17T09:07:42.387Z,999.71
2022-11-17T09:08:47.026Z,999.73
2022-11-17T09:09:43.308Z,999.74
2022-11-17T09:10:42.320Z,999.75
2022-11-17T09:11:42.339Z,999.72
2022-11-17T09:12:42.274Z,999.72
2022-11-17T09:13:42.286Z,999.72
2022-11-17T09:14:42.255Z,999.71
2022-11-17T09:15:42.236Z,999.77
2022-11-17T09:16:42.258Z,999.71
2022-11-17T09:17:42.236Z,999.80
2022-11-17T09:18:42.364Z,999.69
2022-11-17T09:19:42.191Z,999.72
2022-11-17T09:20:45.636Z,999.81
2022-11-17T09:21:42.195Z,999.81
2022-11-17T09:22:42.168Z,999.70
2022-11-17T09:23:42.150Z,999.77
2022-11-17T09:24:42.145Z,999.83
2022-11-17T09:25:42.139Z,999.82
2022-11-17T09:26:42.139Z,999.77
2022-11-17T09:27:42.131Z,999.85
2022-11-17T09:28:42.109Z,999.76
2022-11-17T09:29:42.095Z,999.75
2022-11-17T09:30:42.077Z,999.82
2022-11-17T09:31:42.148Z,999.81
2022-11-17T09:32:42.078Z,999.80
2022-11-17T09:33:42.042Z,999.82
2022-11-17T09:34:42.138Z,999.87
2022-11-17T09:35:42.023Z,999.80
2022-11-17T09:36:42.035Z,999.83
2022-11-17T09:37:41.996Z,999.86
2022-11-17T09:38:42.106Z,999.83
2022-11-17T09:39:41.978Z,999.79
2022-11-17T09:40:41.995Z,999.82
2022-11-17T09:41:41.952Z,999.78
2022-11-17T09:42:41.944Z,999.74
2022-11-17T09:43:42.060Z,999.68
2022-11-17T09:44:41.937Z,999.67
2022-11-17T09:45:41.949Z,999.74
2022-11-17T09:46:41.905Z,999.72
2022-11-17T09:47:41.888Z,999.72
2022-11-17T09:48:42.262Z,999.75
2022-11-17T09:49:41.865Z,999.78
2022-11-17T09:50:41.878Z,999.67
2022-11-17T09:51:41.865Z,999.69
2022-11-17T09:52:41.832Z,999.61
2022-11-17T09:53:41.855Z,999.77
2022-11-17T09:54:41.812Z,999.66
2022-11-17T09:55:41.804Z,999.76
2022-11-17T09:56:41.817Z,999.68
2022-11-17T09:57:41.778Z,999.68
2022-11-17T09:58:41.768Z,999.61
2022-11-17T09:59:41.774Z,999.65
2022-11-17T10:00:41.756Z,999.64
2022-11-17T10:01:41.822Z,999.60
2022-11-17T10:02:41.726Z,999.66
2022-11-17T10:03:45.428Z,999.60
2022-11-17T10:04:41.702Z,999.57
2022-11-17T10:05:41.693Z,999.64
2022-11-17T10:06:41.698Z,999.67
2022-11-17T10:07:41.667Z,999.61
2022-11-17T10:08:41.668Z,999.61
2022-11-17T10:09:41.646Z,999.66
2022-11-17T10:10:41.638Z,999.67
2022-11-17T10:11:41.642Z,999.72
2022-11-17T10:12:41.619Z,999.74
2022-11-17T10:13:41.639Z,999.68
2022-11-17T10:14:41.613Z,999.70
2022-11-17T10:15:41.699Z,999.75
2022-11-17T10:16:41.597Z,999.69
2022-11-17T10:17:41.559Z,999.76
2022-11-17T10:18:41.550Z,999.64
2022-11-17T10:19:41.532Z,999.67
2022-11-17T10:20:41.532Z,999.75
2022-11-17T10:21:41.537Z,999.64
2022-11-17T10:22:41.528Z,999.68
2022-11-17T10:23:46.464Z,999.64
2022-11-17T10:24:42.529Z,999.63
2022-11-17T10:25:41.468Z,999.62
2022-11-17T10:26:41.461Z,999.66
2022-11-17T10:27:41.471Z,999.54
2022-11-17T10:28:41.436Z,999.50
2022-11-17T10:29:41.428Z,999.57
2022-11-17T10:30:41.423Z,999.53
2022-11-17T10:31:41.519Z,999.51
2022-11-17T10:32:46.900Z,999.54
2022-11-17T10:33:42.380Z,999.55
2022-11-17T10:34:41.906Z,999.51
2022-11-17T10:35:41.365Z,999.50
2022-11-17T10:36:41.395Z,999.46
2022-11-17T10:37:41.376Z,999.45
2022-11-17T10:38:41.348Z,999.46
2022-11-17T10:39:41.315Z,999.42
2022-11-17T10:40:41.312Z,999.41
2022-11-17T10:41:41.298Z,999.44
2022-11-17T10:42:41.316Z,999.49
2022-11-17T10:43:41.279Z,999.39
2022-11-17T10:44:41.268Z,999.39
2022-11-17T10:45:41.279Z,999.44
2022-11-17T10:46:46.352Z,999.45
2022-11-17T10:47:42.251Z,999.46
2022-11-17T10:48:41.222Z,999.41
2022-11-17T10:49:41.205Z,999.44
2022-11-17T10:50:41.227Z,999.46
2022-11-17T10:51:41.189Z,999.44
2022-11-17T10:52:41.183Z,999.33
2022-11-17T10:53:45.581Z,999.34
2022-11-17T10:54:42.161Z,999.35
2022-11-17T10:55:41.159Z,999.33
2022-11-17T10:56:41.142Z,999.32
2022-11-17T10:57:41.127Z,999.29
2022-11-17T10:58:41.116Z,999.34
2022-11-17T10:59:41.101Z,999.26
2022-11-17T11:00:41.154Z,999.28
2022-11-17T11:01:41.135Z,999.37
2022-11-17T11:02:41.087Z,999.35
2022-11-17T11:03:41.070Z,999.32
2022-11-17T11:04:41.061Z,999.27
2022-11-17T11:05:41.040Z,999.27
2022-11-17T11:06:41.026Z,999.29
2022-11-17T11:07:41.124Z,999.23
2022-11-17T11:08:41.002Z,999.20
2022-11-17T11:09:40.989Z,999.19
2022-11-17T11:10:40.981Z,999.14
2022-11-17T11:11:40.994Z,999.10
2022-11-17T11:12:40.985Z,999.13
2022-11-17T11:13:40.950Z,999.09
2022-11-17T11:14:40.943Z,999.01
2022-11-17T11:15:40.947Z,999.08
2022-11-17T11:16:46.584Z,998.94
2022-11-17T11:17:41.900Z,999.08
2022-11-17T11:18:40.975Z,998.93
2022-11-17T11:19:40.900Z,998.94
2022-11-17T11:20:40.875Z,998.96
2022-11-17T11:21:40.884Z,998.92
2022-11-17T11:22:40.850Z,998.91
2022-11-17T11:23:40.836Z,998.96
2022-11-17T11:24:40.830Z,998.93
2022-11-17T11:25:40.815Z,998.92
2022-11-17T11:26:40.831Z,998.98
2022-11-17T11:27:40.792Z,998.97
2022-11-17T11:28:46.213Z,998.83
2022-11-17T11:29:41.774Z,998.90
2022-11-17T11:30:40.764Z,998.91
2022-11-17T11:31:40.753Z,998.87
2022-11-17T11:32:40.775Z,998.84
2022-11-17T11:33:40.733Z,998.85
2022-11-17T11:34:40.721Z,998.82
2022-11-17T11:35:40.726Z,998.89
2022-11-17T11:36:40.699Z,998.77
2022-11-17T11:37:40.715Z,998.88
2022-11-17T11:38:40.685Z,998.83
2022-11-17T11:39:40.683Z,998.74
2022-11-17T11:40:40.657Z,998.77
2022-11-17T11:41:40.646Z,998.71
2022-11-17T11:42:40.641Z,998.70
2022-11-17T11:43:40.689Z,998.66
2022-11-17T11:44:40.638Z,998.75
2022-11-17T11:45:40.597Z,998.74
2022-11-17T11:46:40.599Z,998.71
2022-11-17T11:47:40.599Z,998.71
2022-11-17T11:48:40.648Z,998.85
2022-11-17T11:49:40.574Z,998.84
2022-11-17T11:50:41.952Z,998.68
2022-11-17T11:51:40.560Z,998.69
2022-11-17T11:52:40.522Z,998.73
2022-11-17T11:53:40.510Z,998.75
2022-11-17T11:54:41.051Z,998.70
2022-11-17T11:55:40.510Z,998.68
2022-11-17T11:56:40.502Z,998.66
2022-11-17T11:57:40.467Z,998.69
2022-11-17T11:58:40.460Z,998.74
2022-11-17T11:59:40.445Z,998.68
2022-11-17T12:00:40.457Z,998.69
2022-11-17T12:01:40.449Z,998.66
2022-11-17T12:02:40.473Z,998.61
2022-11-17T12:03:40.441Z,998.67
2022-11-17T12:04:40.394Z,998.68
2022-11-17T12:05:40.384Z,998.64
2022-11-17T12:06:40.374Z,998.73
2022-11-17T12:07:40.468Z,998.65
2022-11-17T12:08:40.353Z,998.61
2022-11-17T12:09:40.343Z,998.57
2022-11-17T12:10:40.331Z,998.54
2022-11-17T12:11:40.315Z,998.71
2022-11-17T12:12:40.331Z,998.64
2022-11-17T12:13:47.244Z,998.57
2022-11-17T12:14:41.307Z,998.64
2022-11-17T12:15:40.272Z,998.65